Flight Track Log - Related Links

Times and Time Zones

All times are in EDT time to prevent confusion due to time zone crossing. See the CHQ5046 flight status page for this flight to view local times or setup timezone preferences in your user account.

Time Position Orientation Groundspeed Altitude Reporting Facility
EDT Latitude Longitude Course Direction KTS MPH feet Rate Location/Type
Wed 06:54:55 PM 42.0000 -87.8500 85° East 183 211 3,100  Level Chicago TRACON
Wed 06:55:38 PM 42.0103 -87.7992 75° East 205 236 4,400 2,114 Climbing Chicago Center
Wed 06:56:00 PM 42.0409 -87.4761 84° East  Level FlightAware Approximate
Wed 06:56:40 PM 42.0139 -87.6981 87° East 263 303 6,800  Level Chicago Center
Wed 06:57:00 PM 42.0562 -87.3268 78° East  Level FlightAware Approximate
Wed 06:57:42 PM 42.0336 -87.5736 78° East 284 327 10,100  Level Chicago Center
Wed 06:58:00 PM 42.0789 -87.1790 78° East  Level FlightAware Approximate
Wed 06:58:44 PM 42.0525 -87.4603 77° East 308 354 12,300  Level Chicago Center
Wed 06:59:00 PM 42.1000 -87.0311 90° East  Level FlightAware Approximate
Wed 06:59:47 PM 42.0708 -87.3389 78° East 329 379 14,000  Level Chicago Center
Wed 07:00:00 PM 42.1052 -86.9342 85° East  Level FlightAware Approximate
Wed 07:00:49 PM 42.0897 -87.2081 79° East 352 405 15,000  Level Chicago Center
Wed 07:01:51 PM 42.1036 -87.0606 83° East 393 452 15,000  Level Chicago Center
Wed 07:02:53 PM 42.1189 -86.8881 83° East 389 448 15,000  Level Chicago Center
Wed 07:03:55 PM 42.1322 -86.7425 83° East 392 451 15,000  Level Chicago Center
Wed 07:04:57 PM 42.1450 -86.6069 83° East 397 457 15,000  Level Chicago Center
Wed 07:05:59 PM 42.1575 -86.4619 83° East 393 452 15,000 -339 Level Chicago Center
Wed 07:07:01 PM 42.1731 -86.2856 83° East 395 455 14,300 -1,113 Descending Chicago Center
Wed 07:08:03 PM 42.1853 -86.1453 83° East 381 438 12,700 -1,548 Descending Chicago Center
Wed 07:09:05 PM 42.1969 -86.0072 83° East 372 428 11,100 -1,403 Descending Chicago Center
Wed 07:10:07 PM 42.2169 -85.8822 78° East 304 350 9,800 -1,296 Descending Chicago Center
Wed 07:11:10 PM 42.2403 -85.7931 71° East 288 331 8,400 -1,632 Descending Chicago Center
Wed 07:12:12 PM 42.3144 -85.7531 22° Northeast 267 307 6,400 -1,935 Descending Chicago Center

Login

Don't have an account? Register now (free) for customized features, flight alerts, and more!